OKEO2: Sand Creek near Okesa

Data processed at Tue Jul 26 22:13:48 2016 Central Daylight Time


All information presented herein is the property of the government of the United States of America and may be revised or deleted at any time without prior notice.
Dissemination of this information without the expressed written consent of the Public Affairs Office, Tulsa District U.S. Army Corps of Engineers is strictly prohibited.
These data are gathered electronically and, as presented, have not undergone any form of quality control. These data are not guaranteed to be valid or correct.
Go to home page.
Go to station list.
Go to station map.

Downstream station:

Previous Day
Next Day
Current Day

Display graphics.
Display DCP transmissions.


    
    SHEF ID:       OKEO2     Sand Creek near Okesa
    STATION TYPE:  STREAM GAGE
    
                   PRECIP    PRECIP     STAGE     STAGE  RIV-FLOW  RIV-FLOW  BAT-LOAD  BAT-LOAD
                   INCHES    INCHES      FEET      FEET       CFS       CFS     VOLTS     VOLTS
                     GOES      GOES      GOES      GOES      GOES      GOES      GOES      GOES
       (Cen)
    07/26 01:00      0.00      0.00      6.81      6.81        27        27     12.73     12.73
    07/26 02:00      0.00      0.00      6.82      6.82        28        28     12.65     12.65
    07/26 03:00      0.00      0.00      6.80      6.80        26        26     12.65     12.65
    07/26 04:00      0.00      0.00      6.81      6.81        27        27     12.65     12.65
    07/26 05:00      0.00      0.00      6.81      6.81        27        27     12.65     12.65
    07/26 06:00      0.00      0.00      6.80      6.80        26        26     12.65     12.65
    07/26 07:00      0.00      0.00      6.81      6.81        27        27     12.65     12.65
    07/26 08:00      0.00      0.00      6.80      6.80        26        26     12.65     12.65
    07/26 09:00      0.00      0.00      6.81      6.81        27        27     12.65     12.65
    07/26 10:00      0.00      0.00      6.80      6.80        26        26     12.97     12.97
    07/26 11:00      0.00      0.00      6.81      6.81        27        27     13.37     13.37
    07/26 12:00      0.00      0.00      6.81      6.81        27        27     13.53     13.53
    07/26 13:00      0.00      0.00      6.80      6.80        26        26     13.29     13.29
    07/26 14:00      0.00      0.00      6.80      6.80        26        26     13.21     13.21
    07/26 15:00      0.00      0.00      6.79      6.79        26        26     13.37     13.37
    07/26 16:00      0.00      0.00      6.81      6.81        27        27     13.21     13.21
    07/26 17:00      0.00      0.00      6.80      6.80        26        26     13.13     13.13
    07/26 18:00      0.22      0.22      6.80      6.80        26        26     13.05     13.05
    07/26 19:00      0.03      0.03      6.81      6.81        27        27     13.13     13.13
    07/26 20:00      0.02      0.02      6.82      6.82        28        28     13.05     13.05
    07/26 21:00      0.01      0.01      6.81      6.81        27        27     12.89     12.89
    07/26 22:00      0.01      0.01      6.80      6.80        26        26     12.73     12.73
    07/26 23:00      ----      ----      ----      ----      ----      ----      ----      ----
    07/27 00:00      ----      ----      ----      ----      ----      ----      ----      ----